createdAt,value
2018-08-13T00:00:46.177Z,1001.96
2018-08-13T00:01:46.179Z,1001.89
2018-08-13T00:03:39.113Z,1001.97
2018-08-13T00:04:39.120Z,1001.90
2018-08-13T00:06:32.071Z,1001.93
2018-08-13T00:07:32.068Z,1001.92
2018-08-13T00:09:25.011Z,1001.94
2018-08-13T00:10:25.017Z,1001.96
2018-08-13T00:12:17.967Z,1001.90
2018-08-13T00:13:17.958Z,1001.95
2018-08-13T00:15:10.894Z,1001.97
2018-08-13T00:16:10.912Z,1001.93
2018-08-13T00:18:03.859Z,1001.97
2018-08-13T00:19:03.858Z,1001.91
2018-08-13T00:20:56.820Z,1001.96
2018-08-13T00:21:56.809Z,1001.95
2018-08-13T00:23:49.733Z,1002.00
2018-08-13T00:24:49.752Z,1001.99
2018-08-13T00:26:42.702Z,1001.96
2018-08-13T00:27:42.703Z,1001.97
2018-08-13T00:29:35.626Z,1001.96
2018-08-13T00:30:35.643Z,1001.97
2018-08-13T00:32:28.595Z,1001.94
2018-08-13T00:33:28.593Z,1001.94
2018-08-13T00:35:21.528Z,1001.88
2018-08-13T00:36:21.538Z,1001.90
2018-08-13T00:38:14.497Z,1001.84
2018-08-13T00:39:14.502Z,1001.87
2018-08-13T00:41:07.447Z,1001.86
2018-08-13T00:42:07.444Z,1001.83
2018-08-13T00:44:00.374Z,1001.77
2018-08-13T00:45:00.389Z,1001.80
2018-08-13T00:46:53.339Z,1001.79
2018-08-13T00:47:53.332Z,1001.73
2018-08-13T00:49:46.270Z,1001.68
2018-08-13T00:50:46.286Z,1001.68
2018-08-13T00:52:39.251Z,1001.70
2018-08-13T00:53:39.239Z,1001.68
2018-08-13T00:55:32.172Z,1001.67
2018-08-13T00:56:32.189Z,1001.63
2018-08-13T00:58:25.134Z,1001.64
2018-08-13T00:59:25.136Z,1001.63
2018-08-13T01:01:18.095Z,1001.65
2018-08-13T01:02:18.078Z,1001.65
2018-08-13T01:04:11.009Z,1001.58
2018-08-13T01:05:11.021Z,1001.53
2018-08-13T01:07:03.979Z,1001.51
2018-08-13T01:08:03.971Z,1001.51
2018-08-13T01:09:56.905Z,1001.49
2018-08-13T01:10:56.919Z,1001.47
2018-08-13T01:12:49.870Z,1001.41
2018-08-13T01:13:49.867Z,1001.41
2018-08-13T01:15:42.796Z,1001.35
2018-08-13T01:16:42.812Z,1001.32
2018-08-13T01:18:35.766Z,1001.33
2018-08-13T01:19:35.761Z,1001.36
2018-08-13T01:21:28.710Z,1001.41
2018-08-13T01:22:28.710Z,1001.38
2018-08-13T01:24:21.639Z,1001.41
2018-08-13T01:25:21.655Z,1001.35
2018-08-13T01:27:14.605Z,1001.36
2018-08-13T01:28:14.605Z,1001.35
2018-08-13T01:30:07.530Z,1001.34
2018-08-13T01:31:07.544Z,1001.31
2018-08-13T01:33:00.510Z,1001.31
2018-08-13T01:34:00.499Z,1001.28
2018-08-13T01:35:53.425Z,1001.22
2018-08-13T01:36:53.441Z,1001.18
2018-08-13T01:38:46.394Z,1001.11
2018-08-13T01:39:46.391Z,1001.12
2018-08-13T01:41:39.345Z,1001.04
2018-08-13T01:42:39.341Z,1001.09
2018-08-13T01:44:32.272Z,1001.07
2018-08-13T01:45:32.285Z,1001.06
2018-08-13T01:47:25.233Z,1000.95
2018-08-13T01:48:25.230Z,1000.94
2018-08-13T01:50:18.158Z,1000.92
2018-08-13T01:51:18.175Z,1000.85
2018-08-13T01:53:11.132Z,1000.86
2018-08-13T01:54:11.126Z,1000.83
2018-08-13T02:23:32.994Z,1000.61
2018-08-13T02:24:32.984Z,1000.61
2018-08-13T02:26:25.904Z,1000.58
2018-08-13T02:27:25.916Z,1000.55
2018-08-13T02:29:18.853Z,1000.58
2018-08-13T02:30:18.845Z,1000.59
2018-08-13T02:32:11.783Z,1000.55
2018-08-13T02:33:11.780Z,1000.54
2018-08-13T02:35:04.701Z,1000.61
2018-08-13T02:36:04.715Z,1000.58
2018-08-13T02:37:57.659Z,1000.68
2018-08-13T02:38:57.702Z,1000.67
2018-08-13T02:40:50.580Z,1000.75
2018-08-13T02:41:50.592Z,1000.83
2018-08-13T02:43:43.539Z,1000.71
2018-08-13T02:44:43.533Z,1000.83
2018-08-13T02:46:36.459Z,1000.83
2018-08-13T02:47:36.477Z,1000.90
2018-08-13T02:49:29.422Z,1001.01
2018-08-13T02:50:29.415Z,1001.03
2018-08-13T02:52:22.363Z,1000.99
2018-08-13T02:53:22.361Z,1001.02
2018-08-13T02:55:15.288Z,1001.20
2018-08-13T02:56:15.301Z,1000.98
2018-08-13T02:58:08.268Z,1000.98
2018-08-13T02:59:08.247Z,1001.00
2018-08-13T03:01:01.177Z,1001.01
2018-08-13T03:02:01.182Z,1001.03
2018-08-13T03:03:54.135Z,1000.95
2018-08-13T03:04:54.130Z,1001.04
2018-08-13T03:06:47.061Z,1001.07
2018-08-13T03:07:47.081Z,1001.05
2018-08-13T03:09:40.027Z,1001.10
2018-08-13T03:10:40.025Z,1001.15
2018-08-13T03:12:32.988Z,1001.05
2018-08-13T03:13:32.970Z,1001.08
2018-08-13T03:15:25.908Z,1001.01
2018-08-13T03:16:25.917Z,1001.04
2018-08-13T03:18:18.867Z,1000.95
2018-08-13T03:19:18.863Z,1000.97
2018-08-13T03:21:11.800Z,1000.99
2018-08-13T03:22:11.814Z,1000.97
2018-08-13T03:24:04.768Z,1001.05
2018-08-13T03:25:04.760Z,1001.09
2018-08-13T03:26:57.689Z,1001.08
2018-08-13T03:27:57.709Z,1001.01
2018-08-13T03:29:50.658Z,1000.98
2018-08-13T03:30:50.653Z,1000.98
2018-08-13T03:32:43.617Z,1001.02
2018-08-13T03:33:43.599Z,1001.07
2018-08-13T03:35:36.529Z,1001.13
2018-08-13T03:36:36.549Z,1001.12
2018-08-13T03:38:29.499Z,1001.08
2018-08-13T03:39:29.496Z,1001.06
2018-08-13T03:41:22.429Z,1001.10
2018-08-13T03:42:22.445Z,1001.09
2018-08-13T03:44:15.396Z,1001.13
2018-08-13T03:45:15.386Z,1001.18
2018-08-13T03:47:08.322Z,1001.25
2018-08-13T03:48:08.341Z,1001.25
2018-08-13T03:50:01.289Z,1001.29
2018-08-13T03:51:01.284Z,1001.37
2018-08-13T03:52:54.248Z,1001.45
2018-08-13T03:53:54.304Z,1001.43
2018-08-13T03:55:47.161Z,1001.59
2018-08-13T03:56:47.175Z,1001.63
2018-08-13T03:58:40.127Z,1001.57
2018-08-13T03:59:40.122Z,1001.62
2018-08-13T04:01:33.048Z,1001.61
2018-08-13T04:02:33.065Z,1001.66
2018-08-13T04:04:26.016Z,1001.70
2018-08-13T04:05:26.012Z,1001.72
2018-08-13T04:07:18.941Z,1001.70
2018-08-13T04:08:18.962Z,1001.74
2018-08-13T04:10:11.907Z,1001.70
2018-08-13T04:11:11.909Z,1001.67
2018-08-13T04:13:04.835Z,1001.68
2018-08-13T04:14:04.851Z,1001.66
2018-08-13T04:15:57.804Z,1001.67
2018-08-13T04:16:57.798Z,1001.67
2018-08-13T04:18:50.750Z,1001.71
2018-08-13T04:19:50.738Z,1001.76
2018-08-13T04:21:43.672Z,1001.70
2018-08-13T04:22:43.701Z,1001.70
2018-08-13T04:24:36.642Z,1001.67
2018-08-13T04:25:36.639Z,1001.63
2018-08-13T04:27:29.569Z,1001.59
2018-08-13T04:28:29.577Z,1001.59
2018-08-13T04:30:22.533Z,1001.50
2018-08-13T04:31:22.521Z,1001.47
2018-08-13T04:33:15.454Z,1001.47
2018-08-13T04:34:15.474Z,1001.48
2018-08-13T04:36:08.421Z,1001.47
2018-08-13T04:37:08.413Z,1001.46
2018-08-13T04:39:01.372Z,1001.41
2018-08-13T04:40:01.364Z,1001.33
2018-08-13T04:41:54.291Z,1001.39
2018-08-13T04:42:54.307Z,1001.36
2018-08-13T04:44:47.249Z,1001.41
2018-08-13T04:45:47.247Z,1001.48
2018-08-13T04:47:40.178Z,1001.45
2018-08-13T04:48:40.193Z,1001.44
2018-08-13T04:50:33.143Z,1001.40
2018-08-13T04:51:33.138Z,1001.42
2018-08-13T04:53:26.060Z,1001.33
2018-08-13T04:54:26.078Z,1001.22
2018-08-13T04:56:19.029Z,1001.19
2018-08-13T04:57:19.025Z,1001.18
2018-08-13T04:59:11.970Z,1001.07
2018-08-13T05:00:11.968Z,1001.01
2018-08-13T05:02:04.895Z,1001.01
2018-08-13T05:03:04.909Z,1000.94
2018-08-13T05:04:57.855Z,1001.13
2018-08-13T05:05:57.851Z,1001.19
2018-08-13T05:07:50.793Z,1000.99
2018-08-13T05:08:50.818Z,1000.96
2018-08-13T05:10:43.750Z,1000.97
2018-08-13T05:11:43.745Z,1001.00
2018-08-13T05:13:36.677Z,1001.17
2018-08-13T05:14:36.708Z,1001.31
2018-08-13T05:16:29.653Z,1001.23
2018-08-13T05:17:29.644Z,1001.14
2018-08-13T05:19:22.591Z,1000.82
2018-08-13T05:20:22.587Z,1000.69
2018-08-13T05:22:15.524Z,1000.91
2018-08-13T05:23:15.561Z,1001.03
2018-08-13T05:25:08.484Z,1000.83
2018-08-13T05:26:08.478Z,1000.78
2018-08-13T05:28:01.401Z,1000.70
2018-08-13T05:29:01.417Z,1000.64
2018-08-13T05:30:54.366Z,1000.79
2018-08-13T05:31:54.362Z,1000.83
2018-08-13T05:33:47.286Z,1000.73
2018-08-13T05:34:47.305Z,1000.71
2018-08-13T05:36:40.256Z,1000.61
2018-08-13T05:37:40.247Z,1000.60
2018-08-13T05:39:33.203Z,1000.74
2018-08-13T05:40:33.196Z,1000.86
2018-08-13T05:42:26.122Z,1000.64
2018-08-13T05:43:26.142Z,1000.55
2018-08-13T05:45:19.087Z,1000.32
2018-08-13T05:46:19.081Z,1000.22
2018-08-13T05:48:12.006Z,1000.33
2018-08-13T05:49:12.021Z,1000.38
2018-08-13T05:51:04.969Z,1000.39
2018-08-13T05:52:04.964Z,1000.25
2018-08-13T05:53:57.890Z,1000.11
2018-08-13T05:54:57.905Z,1000.21
2018-08-13T05:56:50.854Z,1000.18
2018-08-13T05:57:50.848Z,1000.09
2018-08-13T05:59:43.791Z,1000.17
2018-08-13T06:00:43.788Z,1000.29
2018-08-13T06:02:36.714Z,1000.38
2018-08-13T06:03:36.729Z,1000.45
2018-08-13T06:05:29.677Z,1000.51
2018-08-13T06:06:29.667Z,1000.55
2018-08-13T06:08:22.598Z,1000.51
2018-08-13T06:09:22.613Z,1000.46
2018-08-13T06:11:15.622Z,1000.46
2018-08-13T06:12:15.552Z,1000.40
2018-08-13T06:14:08.476Z,1000.48
2018-08-13T06:15:08.496Z,1000.38
2018-08-13T06:17:01.441Z,1000.42
2018-08-13T06:18:01.446Z,1000.45
2018-08-13T06:19:54.405Z,1000.53
2018-08-13T06:20:54.398Z,1000.53
2018-08-13T06:22:47.322Z,1000.52
2018-08-13T06:23:47.338Z,1000.57
2018-08-13T06:25:40.282Z,1000.63
2018-08-13T06:26:40.284Z,1000.56
2018-08-13T06:28:33.214Z,1000.57
2018-08-13T06:29:33.222Z,1000.60
2018-08-13T06:31:26.172Z,1000.58
2018-08-13T06:32:26.165Z,1000.53
2018-08-13T06:34:19.091Z,1000.54
2018-08-13T06:35:19.107Z,1000.53
2018-08-13T06:37:12.101Z,1000.56
2018-08-13T06:38:12.051Z,1000.61
2018-08-13T06:40:05.004Z,1000.60
2018-08-13T06:41:04.992Z,1000.65
2018-08-13T06:42:57.920Z,1000.70
2018-08-13T06:43:57.932Z,1000.72
2018-08-13T06:45:50.881Z,1000.70
2018-08-13T06:46:50.874Z,1000.79
2018-08-13T06:48:43.807Z,1000.77
2018-08-13T06:49:43.818Z,1000.81
2018-08-13T06:51:36.768Z,1000.78
2018-08-13T06:52:36.764Z,1000.80
2018-08-13T06:54:29.700Z,1000.75
2018-08-13T06:55:29.717Z,1000.75
2018-08-13T06:57:22.671Z,1000.79
2018-08-13T06:58:22.664Z,1000.83
2018-08-13T07:00:15.611Z,1000.83
2018-08-13T07:01:15.611Z,1000.82
2018-08-13T07:03:08.534Z,1000.78
2018-08-13T07:04:08.549Z,1000.81
2018-08-13T07:06:01.497Z,1000.85
2018-08-13T07:07:01.494Z,1000.86
2018-08-13T07:08:54.429Z,1000.83
2018-08-13T07:09:54.446Z,1000.85
2018-08-13T07:11:47.387Z,1000.88
2018-08-13T07:12:47.383Z,1000.87
2018-08-13T07:14:40.316Z,1000.94
2018-08-13T07:15:40.356Z,1000.95
2018-08-13T07:17:33.285Z,1000.99
2018-08-13T07:18:33.279Z,1000.99
2018-08-13T07:20:26.223Z,1001.07
2018-08-13T07:21:26.221Z,1001.01
2018-08-13T07:23:19.149Z,1001.12
2018-08-13T07:24:19.166Z,1001.12
2018-08-13T07:26:12.118Z,1001.12
2018-08-13T07:27:12.111Z,1001.14
2018-08-13T07:29:05.041Z,1001.15
2018-08-13T07:30:05.053Z,1001.16
2018-08-13T07:31:58.002Z,1001.18
2018-08-13T07:32:58.002Z,1001.18
2018-08-13T07:34:50.931Z,1001.24
2018-08-13T07:35:50.951Z,1001.22
2018-08-13T07:37:43.904Z,1001.21
2018-08-13T07:38:43.899Z,1001.32
2018-08-13T07:40:36.844Z,1001.36
2018-08-13T07:41:36.847Z,1001.37
2018-08-13T07:43:29.776Z,1001.40
2018-08-13T07:44:29.787Z,1001.40
2018-08-13T07:46:22.785Z,1001.37
2018-08-13T07:47:22.731Z,1001.41
2018-08-13T07:49:15.663Z,1001.46
2018-08-13T07:50:15.679Z,1001.50
2018-08-13T07:52:08.625Z,1001.52
2018-08-13T07:53:08.623Z,1001.47
2018-08-13T07:55:01.553Z,1001.50
2018-08-13T07:56:01.569Z,1001.54
2018-08-13T07:57:54.524Z,1001.52
2018-08-13T07:58:54.521Z,1001.53
2018-08-13T08:00:47.471Z,1001.56
2018-08-13T08:01:47.464Z,1001.58
2018-08-13T08:03:40.396Z,1001.61
2018-08-13T08:04:40.412Z,1001.62
2018-08-13T08:06:33.359Z,1001.58
2018-08-13T08:07:33.355Z,1001.58
2018-08-13T08:09:26.295Z,1001.52
2018-08-13T08:10:26.308Z,1001.57
2018-08-13T08:12:19.265Z,1001.53
2018-08-13T08:13:19.264Z,1001.55
2018-08-13T08:15:12.203Z,1001.60
2018-08-13T08:16:12.217Z,1001.65
2018-08-13T08:18:05.165Z,1001.64
2018-08-13T08:19:05.159Z,1001.67
2018-08-13T08:20:58.110Z,1001.62
2018-08-13T08:21:58.105Z,1001.61
2018-08-13T08:23:51.039Z,1001.62
2018-08-13T08:24:51.055Z,1001.62
2018-08-13T08:26:44.005Z,1001.55
2018-08-13T08:27:44.007Z,1001.69
2018-08-13T08:29:36.934Z,1001.67
2018-08-13T08:30:36.949Z,1001.63
2018-08-13T08:32:29.901Z,1001.65
2018-08-13T08:33:29.897Z,1001.68
2018-08-13T08:35:22.833Z,1001.64
2018-08-13T08:36:22.849Z,1001.65
2018-08-13T08:38:15.800Z,1001.67
2018-08-13T08:39:15.800Z,1001.59
2018-08-13T08:41:08.762Z,1001.58
2018-08-13T08:42:08.745Z,1001.60
2018-08-13T08:44:01.686Z,1001.61
2018-08-13T08:45:01.712Z,1001.64
2018-08-13T08:46:54.661Z,1001.53
2018-08-13T08:47:54.661Z,1001.61
2018-08-13T08:49:47.594Z,1001.62
2018-08-13T08:50:47.612Z,1001.61
2018-08-13T08:52:40.565Z,1001.54
2018-08-13T08:53:40.676Z,1001.56
2018-08-13T08:55:33.509Z,1001.60
2018-08-13T08:56:33.519Z,1001.58
2018-08-13T08:58:26.474Z,1001.66
2018-08-13T08:59:26.469Z,1001.66
2018-08-13T09:01:19.406Z,1001.63
2018-08-13T09:02:19.420Z,1001.63
2018-08-13T09:04:12.385Z,1001.65
2018-08-13T09:05:12.373Z,1001.62
2018-08-13T09:07:05.324Z,1001.67
2018-08-13T09:08:05.320Z,1001.68
2018-08-13T09:09:58.259Z,1001.65
2018-08-13T09:10:58.275Z,1001.62
2018-08-13T09:12:51.226Z,1001.61
2018-08-13T09:13:51.231Z,1001.62
2018-08-13T09:15:44.166Z,1001.60
2018-08-13T09:16:44.181Z,1001.61
2018-08-13T09:18:37.139Z,1001.56
2018-08-13T09:19:37.133Z,1001.60
2018-08-13T09:21:30.066Z,1001.56
2018-08-13T09:22:30.087Z,1001.52
2018-08-13T09:24:23.045Z,1001.49
2018-08-13T09:25:23.051Z,1001.51
2018-08-13T09:27:15.996Z,1001.53
2018-08-13T09:28:15.994Z,1001.54
2018-08-13T09:30:08.930Z,1001.51
2018-08-13T09:31:08.950Z,1001.49
2018-08-13T09:33:01.912Z,1001.50
2018-08-13T09:34:01.908Z,1001.48
2018-08-13T09:35:54.843Z,1001.45
2018-08-13T09:36:54.866Z,1001.45
2018-08-13T09:38:47.821Z,1001.42
2018-08-13T09:39:47.829Z,1001.43
2018-08-13T09:41:40.761Z,1001.38
2018-08-13T09:42:40.779Z,1001.40
2018-08-13T09:44:33.729Z,1001.38
2018-08-13T09:45:33.734Z,1001.41
2018-08-13T09:47:26.685Z,1001.37
2018-08-13T09:48:26.684Z,1001.34
2018-08-13T09:50:19.618Z,1001.36
2018-08-13T09:51:19.640Z,1001.31
2018-08-13T09:53:12.594Z,1001.27
2018-08-13T09:54:12.594Z,1001.28
2018-08-13T09:56:05.532Z,1001.29
2018-08-13T09:57:05.551Z,1001.25
2018-08-13T09:58:58.504Z,1001.30
2018-08-13T09:59:58.505Z,1001.24
2018-08-13T10:01:51.441Z,1001.29
2018-08-13T10:02:51.459Z,1001.28
2018-08-13T10:04:44.413Z,1001.26
2018-08-13T10:05:44.410Z,1001.23
2018-08-13T10:07:37.366Z,1001.29
2018-08-13T10:08:37.359Z,1001.24
2018-08-13T10:10:30.292Z,1001.23
2018-08-13T10:11:30.311Z,1001.22
2018-08-13T10:13:23.262Z,1001.27
2018-08-13T10:14:23.259Z,1001.22
2018-08-13T10:16:16.196Z,1001.28
2018-08-13T10:17:16.216Z,1001.24
2018-08-13T10:19:09.167Z,1001.14
2018-08-13T10:20:09.164Z,1001.20
2018-08-13T10:22:02.096Z,1001.23
2018-08-13T10:23:02.115Z,1001.21
2018-08-13T10:24:55.065Z,1001.24
2018-08-13T10:25:55.066Z,1001.20
2018-08-13T10:27:48.036Z,1001.19
2018-08-13T10:28:48.016Z,1001.23
2018-08-13T10:30:40.951Z,1001.20
2018-08-13T10:31:40.968Z,1001.26
2018-08-13T10:33:33.918Z,1001.21
2018-08-13T10:34:33.916Z,1001.23
2018-08-13T10:36:26.849Z,1001.15
2018-08-13T10:37:26.885Z,1001.12
2018-08-13T10:39:19.821Z,1001.21
2018-08-13T10:40:19.822Z,1001.20
2018-08-13T10:42:12.766Z,1001.22
2018-08-13T10:43:12.781Z,1001.19
2018-08-13T10:45:05.746Z,1001.13
2018-08-13T10:46:05.741Z,1001.13
2018-08-13T10:47:58.693Z,1001.08
2018-08-13T10:48:58.694Z,1001.06
2018-08-13T10:50:51.627Z,1001.02
2018-08-13T10:51:51.643Z,1001.00
2018-08-13T10:53:44.600Z,1000.97
2018-08-13T10:54:44.596Z,1000.94
2018-08-13T10:56:37.538Z,1000.88
2018-08-13T10:57:37.557Z,1000.94
2018-08-13T10:59:30.509Z,1000.95
2018-08-13T11:00:30.509Z,1000.93
2018-08-13T11:02:23.440Z,1000.95
2018-08-13T11:03:23.460Z,1000.93
2018-08-13T11:05:16.413Z,1000.94
2018-08-13T11:06:16.413Z,1000.87
2018-08-13T11:08:09.368Z,1000.86
2018-08-13T11:09:09.368Z,1000.85
2018-08-13T11:11:02.302Z,1000.81
2018-08-13T11:12:02.324Z,1000.78
2018-08-13T11:13:55.275Z,1000.82
2018-08-13T11:14:55.274Z,1000.81
2018-08-13T11:16:48.224Z,1000.79
2018-08-13T11:17:48.240Z,1000.76
2018-08-13T11:19:41.196Z,1000.68
2018-08-13T11:20:41.193Z,1000.67
2018-08-13T11:22:34.142Z,1000.67
2018-08-13T11:23:34.162Z,1000.69
2018-08-13T11:25:27.130Z,1000.70
2018-08-13T11:26:27.119Z,1000.69
2018-08-13T11:28:20.073Z,1000.70
2018-08-13T11:29:20.071Z,1000.69
2018-08-13T11:31:13.053Z,1000.69
2018-08-13T11:32:13.025Z,1000.68
2018-08-13T11:34:05.988Z,1000.68
2018-08-13T11:35:05.978Z,1000.71
2018-08-13T11:36:58.920Z,1000.70
2018-08-13T11:37:58.934Z,1000.70
2018-08-13T11:39:51.891Z,1000.64
2018-08-13T11:40:51.888Z,1000.62
2018-08-13T11:42:44.822Z,1000.63
2018-08-13T11:43:44.843Z,1000.60
2018-08-13T11:45:37.791Z,1000.53
2018-08-13T11:46:37.792Z,1000.57
2018-08-13T11:48:30.761Z,1000.51
2018-08-13T11:49:30.755Z,1000.50
2018-08-13T11:51:23.699Z,1000.55
2018-08-13T11:52:23.767Z,1000.55
2018-08-13T11:54:16.667Z,1000.47
2018-08-13T11:55:16.669Z,1000.44
2018-08-13T11:57:09.615Z,1000.48
2018-08-13T11:58:09.637Z,1000.52
2018-08-13T12:00:02.583Z,1000.54
2018-08-13T12:01:02.637Z,1000.57
2018-08-13T12:02:55.520Z,1000.63
2018-08-13T12:03:55.540Z,1000.61
2018-08-13T12:05:48.493Z,1000.65
2018-08-13T12:06:48.492Z,1000.62
2018-08-13T12:08:41.443Z,1000.71
2018-08-13T12:09:41.438Z,1000.71
2018-08-13T12:11:34.380Z,1000.70
2018-08-13T12:12:34.391Z,1000.76
2018-08-13T12:14:27.347Z,1000.66
2018-08-13T12:15:27.397Z,1000.75
2018-08-13T12:17:20.273Z,1000.79
2018-08-13T12:18:20.297Z,1000.78
2018-08-13T12:20:13.247Z,1000.76
2018-08-13T12:21:13.244Z,1000.79
2018-08-13T12:23:06.180Z,1000.77
2018-08-13T12:24:06.200Z,1000.78
2018-08-13T12:25:59.156Z,1000.79
2018-08-13T12:26:59.157Z,1000.75
2018-08-13T12:28:52.115Z,1000.77
2018-08-13T12:29:52.115Z,1000.76
2018-08-13T12:31:45.046Z,1000.81
2018-08-13T12:32:45.069Z,1000.82
2018-08-13T12:34:38.017Z,1000.77
2018-08-13T12:35:38.013Z,1000.89
2018-08-13T12:37:30.950Z,1000.86
2018-08-13T12:38:30.964Z,1000.92
2018-08-13T12:40:23.947Z,1000.85
2018-08-13T12:41:23.914Z,1000.82
2018-08-13T12:43:16.850Z,1000.82
2018-08-13T12:44:16.869Z,1000.80
2018-08-13T12:46:09.826Z,1000.78
2018-08-13T12:47:09.825Z,1000.81
2018-08-13T12:49:02.780Z,1000.76
2018-08-13T12:50:02.779Z,1000.74
2018-08-13T12:51:55.720Z,1000.74
2018-08-13T12:52:55.735Z,1000.83
2018-08-13T12:54:48.690Z,1000.77
2018-08-13T12:55:48.690Z,1000.78
2018-08-13T12:57:41.670Z,1000.70
2018-08-13T12:58:41.659Z,1000.76
2018-08-13T13:00:34.609Z,1000.68
2018-08-13T13:01:34.610Z,1000.74
2018-08-13T13:03:27.539Z,1000.74
2018-08-13T13:04:27.564Z,1000.77
2018-08-13T13:06:20.519Z,1000.71
2018-08-13T13:07:20.509Z,1000.76
2018-08-13T13:09:13.571Z,1000.71
2018-08-13T13:10:13.496Z,1000.82
2018-08-13T13:12:06.452Z,1000.95
2018-08-13T13:13:06.453Z,1000.97
2018-08-13T13:14:59.504Z,1000.96
2018-08-13T13:15:59.388Z,1001.11
2018-08-13T13:17:52.396Z,1001.23
2018-08-13T13:18:52.480Z,1001.22
2018-08-13T13:20:45.495Z,1001.32
2018-08-13T13:21:45.448Z,1001.33
2018-08-13T13:23:38.527Z,1001.39
2018-08-13T13:24:38.623Z,1001.36
2018-08-13T13:26:31.462Z,1001.24
2018-08-13T13:27:31.465Z,1001.21
2018-08-13T13:29:24.410Z,1001.19
2018-08-13T13:30:24.412Z,1001.16
2018-08-13T13:32:17.343Z,1001.03
2018-08-13T13:33:17.357Z,1001.03
2018-08-13T13:35:10.323Z,1000.98
2018-08-13T13:36:10.320Z,1000.95
2018-08-13T13:38:03.256Z,1000.99
2018-08-13T13:39:03.272Z,1001.10
2018-08-13T13:40:56.223Z,1001.23
2018-08-13T13:41:56.232Z,1001.26
2018-08-13T13:43:49.150Z,1001.44
2018-08-13T13:44:49.165Z,1001.48
2018-08-13T13:46:42.113Z,1001.50
2018-08-13T13:47:42.114Z,1001.48
2018-08-13T13:49:35.073Z,1001.39
2018-08-13T13:50:35.074Z,1001.35
2018-08-13T13:52:28.000Z,1001.30
2018-08-13T13:53:28.020Z,1001.28
2018-08-13T13:55:20.970Z,1001.25
2018-08-13T13:56:20.964Z,1001.25
2018-08-13T13:58:13.903Z,1001.24
2018-08-13T13:59:13.914Z,1001.27
2018-08-13T14:01:06.863Z,1001.25
2018-08-13T14:02:06.864Z,1001.22
2018-08-13T14:03:59.789Z,1001.24
2018-08-13T14:04:59.812Z,1001.26
2018-08-13T14:06:52.759Z,1001.29
2018-08-13T14:07:52.759Z,1001.29
2018-08-13T14:09:45.687Z,1001.25
2018-08-13T14:10:45.701Z,1001.27
2018-08-13T14:12:38.656Z,1001.27
2018-08-13T14:13:38.656Z,1001.26
2018-08-13T14:15:31.607Z,1001.16
2018-08-13T14:16:31.600Z,1001.21
2018-08-13T14:18:24.537Z,1001.16
2018-08-13T14:19:24.556Z,1001.18
2018-08-13T14:21:17.508Z,1001.17
2018-08-13T14:22:17.500Z,1001.22
2018-08-13T14:24:10.433Z,1001.17
2018-08-13T14:25:10.448Z,1001.14
2018-08-13T14:27:03.399Z,1001.24
2018-08-13T14:28:03.423Z,1001.16
2018-08-13T14:29:56.328Z,1001.20
2018-08-13T14:30:56.344Z,1001.17
2018-08-13T14:32:49.305Z,1001.19
2018-08-13T14:33:49.295Z,1001.13
2018-08-13T14:35:42.270Z,1001.20
2018-08-13T14:36:42.245Z,1001.23
2018-08-13T14:38:35.259Z,1001.29
2018-08-13T14:39:35.265Z,1001.35
2018-08-13T14:41:28.268Z,1001.31
2018-08-13T14:42:28.216Z,1001.38
2018-08-13T14:44:21.167Z,1001.32
2018-08-13T14:45:21.207Z,1001.36
2018-08-13T14:47:14.159Z,1001.40
2018-08-13T14:48:14.149Z,1001.39
2018-08-13T14:50:07.079Z,1001.41
2018-08-13T14:51:07.146Z,1001.40
2018-08-13T14:53:00.056Z,1001.46
2018-08-13T14:54:00.047Z,1001.40
2018-08-13T14:55:52.998Z,1001.40
2018-08-13T14:56:52.993Z,1001.39
2018-08-13T14:58:45.922Z,1001.32
2018-08-13T14:59:45.942Z,1001.31
2018-08-13T15:01:38.897Z,1001.26
2018-08-13T15:02:38.886Z,1001.27
2018-08-13T15:04:31.817Z,1001.23
2018-08-13T15:05:31.856Z,1001.17
2018-08-13T15:07:24.789Z,1001.25
2018-08-13T15:08:24.783Z,1001.30
2018-08-13T15:10:17.716Z,1001.28
2018-08-13T15:11:17.731Z,1001.32
2018-08-13T15:13:10.697Z,1001.32
2018-08-13T15:14:10.675Z,1001.34
2018-08-13T15:16:03.629Z,1001.42
2018-08-13T15:17:03.630Z,1001.43
2018-08-13T15:18:56.554Z,1001.47
2018-08-13T15:19:56.569Z,1001.52
2018-08-13T15:21:49.522Z,1001.54
2018-08-13T15:22:49.538Z,1001.51
2018-08-13T15:24:42.458Z,1001.59
2018-08-13T15:25:42.475Z,1001.57
2018-08-13T15:27:35.630Z,1001.61
2018-08-13T15:28:35.422Z,1001.54
2018-08-13T15:30:28.352Z,1001.56
2018-08-13T15:31:28.372Z,1001.50
2018-08-13T15:33:21.356Z,1001.60
2018-08-13T15:34:21.315Z,1001.51
2018-08-13T15:36:14.267Z,1001.54
2018-08-13T15:37:14.271Z,1001.55
2018-08-13T15:39:07.196Z,1001.48
2018-08-13T15:40:07.218Z,1001.45
2018-08-13T15:42:00.163Z,1001.43
2018-08-13T15:43:00.158Z,1001.46
2018-08-13T15:44:53.091Z,1001.51
2018-08-13T15:45:53.107Z,1001.48
2018-08-13T15:47:46.074Z,1001.43
2018-08-13T15:48:46.060Z,1001.47
2018-08-13T15:50:38.989Z,1001.53
2018-08-13T15:51:39.012Z,1001.52
2018-08-13T15:53:31.988Z,1001.60
2018-08-13T15:54:31.956Z,1001.52
2018-08-13T15:56:24.907Z,1001.57
2018-08-13T15:57:24.904Z,1001.56
2018-08-13T15:59:17.842Z,1001.60
2018-08-13T16:00:17.856Z,1001.62
2018-08-13T16:02:10.807Z,1001.62
2018-08-13T16:03:10.803Z,1001.59
2018-08-13T16:05:03.740Z,1001.66
2018-08-13T16:06:03.753Z,1001.63
2018-08-13T16:07:56.730Z,1001.66
2018-08-13T16:08:56.707Z,1001.64
2018-08-13T16:10:49.647Z,1001.59
2018-08-13T16:11:49.662Z,1001.64
2018-08-13T16:13:42.613Z,1001.65
2018-08-13T16:14:42.612Z,1001.59
2018-08-13T16:16:35.564Z,1001.57
2018-08-13T16:17:35.557Z,1001.58
2018-08-13T16:19:28.503Z,1001.59
2018-08-13T16:20:28.521Z,1001.58
2018-08-13T16:22:21.473Z,1001.54
2018-08-13T16:23:21.471Z,1001.57
2018-08-13T16:25:14.399Z,1001.56
2018-08-13T16:26:14.418Z,1001.57
2018-08-13T16:28:07.366Z,1001.59
2018-08-13T16:29:07.361Z,1001.52
2018-08-13T16:31:00.293Z,1001.47
2018-08-13T16:32:00.309Z,1001.50
2018-08-13T16:33:53.299Z,1001.49
2018-08-13T16:34:53.306Z,1001.50
2018-08-13T16:36:46.245Z,1001.46
2018-08-13T16:37:46.239Z,1001.46
2018-08-13T16:39:39.168Z,1001.43
2018-08-13T16:40:39.187Z,1001.47
2018-08-13T16:42:32.137Z,1001.50
2018-08-13T16:43:32.134Z,1001.43
2018-08-13T16:45:25.069Z,1001.43
2018-08-13T16:46:25.085Z,1001.42
2018-08-13T16:48:18.044Z,1001.44
2018-08-13T16:49:18.036Z,1001.40
2018-08-13T16:51:10.975Z,1001.41
2018-08-13T16:52:10.983Z,1001.40
2018-08-13T16:54:03.935Z,1001.35
2018-08-13T16:55:03.933Z,1001.35
2018-08-13T16:56:56.881Z,1001.36
2018-08-13T16:57:56.880Z,1001.34
2018-08-13T16:59:49.810Z,1001.36
2018-08-13T17:01:22.649Z,1001.36
2018-08-13T17:02:22.892Z,1001.33
2018-08-13T17:04:15.356Z,1001.37
2018-08-13T17:05:15.351Z,1001.41
2018-08-13T17:07:08.304Z,1001.43
2018-08-13T17:08:08.313Z,1001.42
2018-08-13T17:10:01.244Z,1001.45
2018-08-13T17:11:01.253Z,1001.53
2018-08-13T17:12:54.221Z,1001.46
2018-08-13T17:13:54.251Z,1001.44
2018-08-13T17:15:47.133Z,1001.47
2018-08-13T17:16:47.150Z,1001.42
2018-08-13T17:18:40.599Z,1001.41
2018-08-13T17:19:40.597Z,1001.41
2018-08-13T17:21:33.529Z,1001.40
2018-08-13T17:22:33.542Z,1001.34
2018-08-13T17:24:26.510Z,1001.37
2018-08-13T17:25:26.497Z,1001.35
2018-08-13T17:27:19.439Z,1001.34
2018-08-13T17:28:19.506Z,1001.32
2018-08-13T17:30:12.371Z,1001.35
2018-08-13T17:31:12.385Z,1001.41
2018-08-13T17:33:05.345Z,1001.39
2018-08-13T17:34:05.551Z,1001.37
2018-08-13T17:35:58.277Z,1001.35
2018-08-13T17:36:58.298Z,1001.39
2018-08-13T17:38:51.246Z,1001.41
2018-08-13T17:39:51.240Z,1001.42
2018-08-13T17:41:44.180Z,1001.45
2018-08-13T17:42:44.214Z,1001.46
2018-08-13T17:44:37.158Z,1001.51
2018-08-13T17:45:37.156Z,1001.53
2018-08-13T17:47:30.101Z,1001.57
2018-08-13T17:48:30.101Z,1001.65
2018-08-13T17:50:23.037Z,1001.64
2018-08-13T17:51:23.046Z,1001.69
2018-08-13T17:53:15.992Z,1001.72